Time;durP1;ratioP1;P1;durP2;ratioP2;P2;SDS_P1;SDS_P2;PMS_P1;PMS_P2;Temp;Humidity;BMP_temperature;BMP_pressure;BME280_temperature;BME280_humidity;BME280_pressure;Samples;Min_cycle;Max_cycle;Signal;HPM_P1;HPM_P2
2021/06/14 00:00:00;;;;;;;5.93;4.60;;;20.70;58.90;;;;;;4965908;28;22103;-83
2021/06/14 00:02:27;;;;;;;4.50;4.10;;;20.80;58.60;;;;;;4982306;28;20455;-83
2021/06/14 00:04:54;;;;;;;7.03;4.87;;;20.80;59.20;;;;;;4983592;28;20525;-83
2021/06/14 00:07:23;;;;;;;6.13;4.70;;;20.70;61.40;;;;;;4990312;28;20458;-83
2021/06/14 00:09:50;;;;;;;5.10;4.60;;;20.80;62.70;;;;;;4966591;28;20566;-82
2021/06/14 00:12:21;;;;;;;5.33;4.70;;;20.70;64.60;;;;;;4966767;28;20471;-83
2021/06/14 00:14:52;;;;;;;6.63;4.90;;;20.70;65.30;;;;;;4982843;28;20518;-82
2021/06/14 00:17:20;;;;;;;6.27;4.60;;;20.60;64.10;;;;;;4982472;28;20451;-83
2021/06/14 00:19:47;;;;;;;5.93;4.30;;;20.40;63.90;;;;;;4983540;28;20986;-82
2021/06/14 00:22:15;;;;;;;5.93;4.73;;;20.30;64.30;;;;;;4968554;28;20463;-82
2021/06/14 00:24:42;;;;;;;6.87;4.63;;;20.20;64.60;;;;;;4966894;28;20491;-83
2021/06/14 00:27:12;;;;;;;5.50;4.77;;;20.10;64.50;;;;;;4985070;28;20465;-84
2021/06/14 00:29:39;;;;;;;6.67;4.53;;;20.00;64.80;;;;;;4985512;28;20466;-83
2021/06/14 00:32:06;;;;;;;5.93;5.10;;;20.00;64.50;;;;;;4966528;28;20455;-82
2021/06/14 00:34:33;;;;;;;6.77;5.00;;;19.90;64.40;;;;;;4953917;28;20567;-84
2021/06/14 00:37:00;;;;;;;6.13;4.53;;;20.00;65.60;;;;;;4967500;28;20463;-83
2021/06/14 00:39:27;;;;;;;8.90;4.37;;;20.10;66.00;;;;;;4982475;28;20458;-83
2021/06/14 00:41:53;;;;;;;5.57;4.80;;;20.00;65.00;;;;;;4963321;28;20459;-82
2021/06/14 00:44:20;;;;;;;4.90;4.40;;;19.90;64.60;;;;;;4982880;28;20682;-84
2021/06/14 00:46:47;;;;;;;7.93;4.63;;;19.90;65.00;;;;;;4965780;28;20895;-83
2021/06/14 00:49:14;;;;;;;7.13;4.57;;;20.00;65.60;;;;;;4981187;28;20815;-83
2021/06/14 00:51:42;;;;;;;5.23;4.67;;;19.90;65.70;;;;;;4964512;28;20443;-84
2021/06/14 00:54:09;;;;;;;5.03;4.53;;;20.10;66.50;;;;;;4962749;28;20479;-82
2021/06/14 00:56:36;;;;;;;7.63;5.00;;;20.00;66.00;;;;;;4981909;28;20482;-81
2021/06/14 00:59:03;;;;;;;5.27;4.77;;;20.10;66.00;;;;;;4982889;28;20462;-82
2021/06/14 01:01:29;;;;;;;7.20;5.00;;;19.80;66.80;;;;;;4964978;28;20510;-83
2021/06/14 01:03:56;;;;;;;6.33;5.23;;;19.80;67.10;;;;;;4981890;28;20471;-83
2021/06/14 01:06:23;;;;;;;6.40;4.63;;;19.80;67.00;;;;;;4981630;28;20455;-83
2021/06/14 01:08:52;;;;;;;5.70;4.47;;;19.60;67.60;;;;;;4982320;28;20494;-82
2021/06/14 01:11:29;;;;;;;5.07;4.63;;;19.50;68.80;;;;;;4971247;28;20469;-83
2021/06/14 01:14:06;;;;;;;5.93;4.90;;;19.40;69.50;;;;;;5000622;28;20479;-84
2021/06/14 01:16:58;;;;;;;5.10;4.50;;;19.30;70.10;;;;;;4981673;28;20505;-83
2021/06/14 01:20:07;;;;;;;5.30;3.80;;;19.30;69.90;;;;;;4985229;28;20456;-84
2021/06/14 01:22:56;;;;;;;6.13;4.53;;;19.30;70.30;;;;;;4965761;28;20468;-83
2021/06/14 01:25:41;;;;;;;6.07;5.47;;;19.40;70.30;;;;;;4979590;28;20491;-83
2021/06/14 01:28:11;;;;;;;4.63;4.10;;;19.20;70.80;;;;;;4965100;28;20474;-82
2021/06/14 01:30:39;;;;;;;5.50;4.90;;;19.00;71.90;;;;;;4982181;28;21017;-83
2021/06/14 01:33:08;;;;;;;7.30;4.40;;;19.10;72.00;;;;;;4982713;28;20946;-83
2021/06/14 01:35:47;;;;;;;8.50;5.10;;;18.90;72.50;;;;;;4965616;28;20479;-82
2021/06/14 01:38:18;;;;;;;4.73;4.03;;;18.80;73.40;;;;;;4985600;28;20467;-82
2021/06/14 01:40:48;;;;;;;7.03;4.37;;;19.00;74.20;;;;;;4965771;28;21163;-82
2021/06/14 01:43:16;;;;;;;4.47;4.07;;;19.10;73.40;;;;;;4965095;28;20463;-83
2021/06/14 01:45:49;;;;;;;5.20;4.70;;;19.00;73.20;;;;;;4984018;28;20462;-83
2021/06/14 01:48:18;;;;;;;4.97;3.97;;;19.00;73.00;;;;;;4972278;28;21252;-83
2021/06/14 01:50:45;;;;;;;5.83;4.40;;;18.80;72.70;;;;;;4964273;28;20459;-83
2021/06/14 01:53:14;;;;;;;7.00;4.33;;;18.70;73.50;;;;;;4984851;28;20451;-83
2021/06/14 01:55:42;;;;;;;4.07;3.77;;;18.60;74.40;;;;;;4971408;28;20498;-83
2021/06/14 01:58:10;;;;;;;9.17;5.13;;;18.50;75.50;;;;;;4972783;28;20455;-84
2021/06/14 02:00:40;;;;;;;6.37;4.63;;;18.30;75.90;;;;;;4990412;28;20527;-82
2021/06/14 02:03:07;;;;;;;5.23;4.73;;;18.30;76.80;;;;;;4972901;28;20450;-83
2021/06/14 02:05:34;;;;;;;5.33;4.50;;;18.60;77.40;;;;;;4966658;28;20974;-83
2021/06/14 02:08:02;;;;;;;5.83;4.17;;;18.60;76.20;;;;;;4967232;28;20458;-84
2021/06/14 02:10:30;;;;;;;5.10;4.30;;;18.50;77.30;;;;;;4967692;28;20459;-82
2021/06/14 02:12:58;;;;;;;5.10;4.20;;;18.40;78.10;;;;;;4967471;28;20444;-83
2021/06/14 02:15:25;;;;;;;5.63;4.50;;;18.30;79.00;;;;;;4965922;28;20494;-83
2021/06/14 02:17:54;;;;;;;4.60;4.00;;;18.20;79.90;;;;;;4963723;28;20466;-83
2021/06/14 02:20:22;;;;;;;6.70;4.00;;;18.10;80.20;;;;;;4965011;28;22101;-82
2021/06/14 02:22:48;;;;;;;5.23;4.30;;;18.10;80.10;;;;;;4981677;28;20470;-83
2021/06/14 02:25:16;;;;;;;8.50;4.70;;;18.00;80.90;;;;;;4966077;28;20501;-83
2021/06/14 02:27:43;;;;;;;8.60;4.60;;;17.90;80.40;;;;;;4987485;28;20467;-83
2021/06/14 02:30:14;;;;;;;5.90;4.30;;;17.80;81.10;;;;;;4987460;28;20451;-84
2021/06/14 02:32:41;;;;;;;4.90;3.87;;;17.70;81.80;;;;;;4969382;28;20530;-84
2021/06/14 02:35:11;;;;;;;6.13;4.30;;;17.90;81.60;;;;;;4994978;28;20493;-80
2021/06/14 02:37:46;;;;;;;5.27;3.93;;;17.70;81.70;;;;;;4996361;28;20456;-83
2021/06/14 02:40:14;;;;;;;5.63;3.53;;;17.80;81.50;;;;;;4981743;28;20446;-83
2021/06/14 02:42:43;;;;;;;5.10;4.27;;;17.80;81.80;;;;;;4996969;28;20827;-84
2021/06/14 02:45:11;;;;;;;6.40;4.20;;;17.70;83.00;;;;;;4980792;28;20868;-83
2021/06/14 02:47:38;;;;;;;4.10;3.77;;;17.60;83.50;;;;;;4984601;28;20934;-85
2021/06/14 02:50:07;;;;;;;4.40;4.00;;;17.50;84.10;;;;;;4985846;28;20451;-83
2021/06/14 02:52:37;;;;;;;5.50;3.73;;;17.40;84.80;;;;;;4983655;28;20455;-82
2021/06/14 02:55:15;;;;;;;5.57;4.17;;;17.40;85.30;;;;;;4983806;28;20463;-82
2021/06/14 02:58:05;;;;;;;5.03;4.57;;;17.30;86.00;;;;;;4988009;28;20443;-83
2021/06/14 03:00:40;;;;;;;4.10;3.60;;;17.30;86.40;;;;;;4987082;28;20448;-83
2021/06/14 03:03:07;;;;;;;4.40;3.70;;;17.40;86.40;;;;;;5006539;28;20454;-83
2021/06/14 03:05:40;;;;;;;6.03;4.20;;;17.30;86.80;;;;;;5006653;28;20502;-83
2021/06/14 03:08:10;;;;;;;6.63;4.67;;;17.30;87.30;;;;;;5005947;28;20478;-84
2021/06/14 03:10:39;;;;;;;5.33;3.90;;;17.30;87.50;;;;;;4991359;28;20490;-84
2021/06/14 03:13:12;;;;;;;6.80;4.47;;;17.40;87.70;;;;;;4990091;28;20478;-82
2021/06/14 03:15:40;;;;;;;7.50;4.30;;;17.40;87.20;;;;;;4992645;28;20518;-83
2021/06/14 03:18:10;;;;;;;5.80;4.57;;;17.40;87.20;;;;;;4993326;28;20445;-83
2021/06/14 03:20:44;;;;;;;8.10;4.70;;;17.40;87.70;;;;;;4989188;28;20447;-82
2021/06/14 03:23:16;;;;;;;6.17;4.03;;;17.30;88.30;;;;;;4988707;28;20439;-80
2021/06/14 03:25:46;;;;;;;5.30;3.70;;;17.40;88.00;;;;;;5005335;28;20544;-82
2021/06/14 03:28:22;;;;;;;7.03;4.20;;;17.10;88.50;;;;;;5004245;28;20451;-81
2021/06/14 03:30:58;;;;;;;5.63;3.53;;;17.00;89.60;;;;;;4985516;28;20447;-81
2021/06/14 03:33:33;;;;;;;6.50;4.33;;;17.10;89.40;;;;;;5003172;28;20608;-81
2021/06/14 03:36:01;;;;;;;5.53;4.07;;;17.10;90.10;;;;;;4988133;28;20498;-82
2021/06/14 03:38:28;;;;;;;6.20;3.80;;;17.20;90.00;;;;;;5004232;28;20435;-82
2021/06/14 03:40:55;;;;;;;5.90;3.87;;;17.10;89.60;;;;;;4982956;28;20458;-83
2021/06/14 03:43:24;;;;;;;5.20;4.20;;;17.10;90.00;;;;;;5003005;28;20470;-82
2021/06/14 03:45:51;;;;;;;5.23;4.03;;;17.00;90.20;;;;;;4982001;28;20486;-82
2021/06/14 03:48:18;;;;;;;5.17;4.40;;;17.10;90.10;;;;;;4981713;28;20459;-82
2021/06/14 03:50:44;;;;;;;9.27;3.77;;;17.10;90.00;;;;;;5002594;28;20453;-81
2021/06/14 03:53:15;;;;;;;8.67;4.70;;;17.00;90.20;;;;;;5003682;28;20455;-83
2021/06/14 03:55:42;;;;;;;5.03;3.90;;;16.90;90.60;;;;;;5004676;28;20471;-83
2021/06/14 03:58:08;;;;;;;6.13;4.50;;;16.90;90.80;;;;;;5005415;28;20455;-82
2021/06/14 04:00:35;;;;;;;5.10;3.70;;;17.10;91.00;;;;;;4988722;28;20463;-82
2021/06/14 04:03:02;;;;;;;4.57;3.70;;;17.30;90.30;;;;;;4982241;28;20516;-80
2021/06/14 04:05:29;;;;;;;5.17;4.30;;;17.40;90.20;;;;;;4972947;28;20474;-83
2021/06/14 04:07:56;;;;;;;7.37;4.40;;;17.30;90.00;;;;;;4983095;28;20462;-81
2021/06/14 04:10:23;;;;;;;9.30;4.17;;;17.40;90.20;;;;;;4980661;28;20976;-83
2021/06/14 04:12:49;;;;;;;6.70;4.37;;;17.50;89.70;;;;;;4964447;28;20455;-82
2021/06/14 04:15:16;;;;;;;6.37;4.70;;;17.40;90.00;;;;;;4976929;28;20494;-81
2021/06/14 04:17:43;;;;;;;7.80;4.50;;;17.40;90.20;;;;;;4980896;28;20451;-83
2021/06/14 04:20:10;;;;;;;13.20;5.30;;;17.60;90.10;;;;;;4983420;28;20612;-82
2021/06/14 04:22:37;;;;;;;8.50;4.60;;;17.60;89.80;;;;;;5000249;28;20519;-82
2021/06/14 04:25:04;;;;;;;10.37;4.77;;;17.40;90.00;;;;;;4983912;28;20482;-82
2021/06/14 04:27:32;;;;;;;13.13;5.43;;;17.30;90.30;;;;;;4982963;28;20439;-82
2021/06/14 04:29:59;;;;;;;12.63;5.80;;;17.10;90.70;;;;;;4982084;28;20447;-81
2021/06/14 04:32:26;;;;;;;8.27;5.30;;;17.00;90.90;;;;;;4998324;28;20455;-83
2021/06/14 04:34:54;;;;;;;10.20;5.80;;;17.10;90.90;;;;;;4998237;28;20451;-81
2021/06/14 04:37:22;;;;;;;10.90;6.03;;;17.30;90.70;;;;;;4997913;28;20494;-82
2021/06/14 04:39:48;;;;;;;11.27;5.57;;;17.40;90.20;;;;;;5000066;28;20470;-82
2021/06/14 04:42:15;;;;;;;7.07;4.70;;;17.30;90.00;;;;;;4996733;28;20435;-82
2021/06/14 04:44:42;;;;;;;7.33;4.60;;;17.20;90.00;;;;;;4981770;28;20465;-81
2021/06/14 04:47:09;;;;;;;6.80;4.40;;;17.20;90.20;;;;;;4985320;28;20473;-82
2021/06/14 04:49:35;;;;;;;7.50;5.00;;;17.20;90.20;;;;;;4982829;28;20878;-82
2021/06/14 04:52:02;;;;;;;5.93;4.33;;;17.20;90.50;;;;;;4984595;28;20474;-82
2021/06/14 04:54:29;;;;;;;4.70;4.30;;;17.20;91.00;;;;;;4992318;28;20486;-83
2021/06/14 04:56:56;;;;;;;7.40;4.80;;;17.30;91.00;;;;;;4971671;28;20475;-83
2021/06/14 04:59:24;;;;;;;7.43;4.63;;;17.30;91.00;;;;;;4986901;28;20550;-83
2021/06/14 05:01:50;;;;;;;12.87;5.80;;;17.20;90.90;;;;;;4986397;28;20465;-83
2021/06/14 05:04:17;;;;;;;6.83;4.70;;;17.10;90.90;;;;;;4967988;28;20565;-83
2021/06/14 05:06:44;;;;;;;5.57;3.73;;;17.20;90.90;;;;;;4985982;28;20463;-83
2021/06/14 05:09:11;;;;;;;8.53;5.50;;;17.20;91.00;;;;;;4970957;28;20463;-83
2021/06/14 05:11:37;;;;;;;8.10;5.10;;;17.30;90.80;;;;;;4985898;28;20486;-81
2021/06/14 05:14:04;;;;;;;8.50;4.50;;;17.40;90.40;;;;;;4966543;28;20491;-81
2021/06/14 05:16:31;;;;;;;5.77;4.00;;;17.50;90.20;;;;;;4966138;28;20487;-83
2021/06/14 05:18:58;;;;;;;6.60;4.00;;;17.30;90.20;;;;;;4983952;28;21203;-81
2021/06/14 05:21:26;;;;;;;7.80;4.20;;;17.50;90.60;;;;;;4983612;28;21232;-83
2021/06/14 05:23:52;;;;;;;5.60;4.00;;;17.70;90.10;;;;;;4982384;28;20482;-82
2021/06/14 05:26:19;;;;;;;6.40;4.90;;;17.80;90.00;;;;;;4964546;28;20462;-83
2021/06/14 05:28:46;;;;;;;4.90;3.87;;;17.80;88.90;;;;;;4983539;28;21012;-83
2021/06/14 05:31:13;;;;;;;4.80;3.90;;;17.80;87.90;;;;;;4968836;28;20558;-81
2021/06/14 05:33:40;;;;;;;7.50;4.47;;;17.70;88.00;;;;;;4972501;28;20528;-83
2021/06/14 05:36:08;;;;;;;5.27;4.67;;;17.70;87.70;;;;;;4975190;28;22948;-84
2021/06/14 05:38:34;;;;;;;3.97;3.60;;;17.90;87.70;;;;;;4973023;28;20550;-83
2021/06/14 05:41:01;;;;;;;5.30;4.03;;;17.90;87.70;;;;;;4985343;28;20447;-82
2021/06/14 05:43:29;;;;;;;7.37;3.60;;;17.90;87.60;;;;;;4985748;28;20510;-83
2021/06/14 05:45:56;;;;;;;5.53;4.30;;;17.90;88.00;;;;;;4966173;28;21042;-83
2021/06/14 05:48:23;;;;;;;5.27;4.77;;;17.90;87.90;;;;;;4965663;28;20455;-84
2021/06/14 05:50:51;;;;;;;7.90;4.57;;;18.10;88.10;;;;;;4967488;28;20482;-83
2021/06/14 05:53:19;;;;;;;5.10;4.23;;;18.20;88.30;;;;;;4967769;28;20451;-83
2021/06/14 05:55:46;;;;;;;8.63;4.63;;;18.20;87.90;;;;;;4964484;28;20514;-83
2021/06/14 05:58:12;;;;;;;5.20;4.30;;;18.10;87.70;;;;;;4965989;28;20459;-84
2021/06/14 06:00:39;;;;;;;4.90;4.07;;;18.20;88.50;;;;;;4965613;28;20486;-84
2021/06/14 06:03:07;;;;;;;6.50;3.90;;;18.30;88.30;;;;;;4965730;28;20515;-83
2021/06/14 06:05:34;;;;;;;5.83;4.00;;;18.30;88.40;;;;;;4966312;28;20521;-84
2021/06/14 06:08:02;;;;;;;5.53;3.70;;;18.50;87.50;;;;;;4966448;28;20463;-83
2021/06/14 06:10:32;;;;;;;6.17;3.87;;;18.60;87.60;;;;;;4964488;28;20471;-83
2021/06/14 06:13:01;;;;;;;11.80;4.13;;;18.70;87.60;;;;;;4963637;28;20489;-84
2021/06/14 06:15:28;;;;;;;6.50;4.10;;;18.80;87.00;;;;;;4983359;28;20491;-83
2021/06/14 06:17:56;;;;;;;7.30;4.20;;;18.80;86.60;;;;;;4965259;28;21017;-83
2021/06/14 06:20:24;;;;;;;8.50;4.27;;;18.70;86.70;;;;;;4972450;28;20529;-84
2021/06/14 06:22:55;;;;;;;8.50;4.30;;;18.50;87.60;;;;;;4975703;28;20440;-80
2021/06/14 06:25:58;;;;;;;4.73;3.80;;;18.80;87.70;;;;;;5070133;23;20506;-81
2021/06/14 06:28:55;;;;;;;5.80;4.00;;;18.90;86.70;;;;;;4977519;28;20494;-82
2021/06/14 06:35:37;;;;;;;7.40;4.50;;;19.20;85.40;;;;;;4988665;28;21031;-81
2021/06/14 06:38:21;;;;;;;5.77;3.87;;;19.10;85.90;;;;;;4983470;28;20451;-83
2021/06/14 06:40:56;;;;;;;5.70;3.70;;;19.30;84.70;;;;;;4990466;28;20464;-83
2021/06/14 06:43:34;;;;;;;4.57;3.37;;;19.50;83.50;;;;;;4985936;28;20455;-83
2021/06/14 06:46:11;;;;;;;6.23;4.00;;;19.60;83.90;;;;;;4979670;28;20516;-82
2021/06/14 06:48:44;;;;;;;4.00;3.57;;;19.40;82.90;;;;;;4968369;28;20467;-84
2021/06/14 06:51:23;;;;;;;4.83;3.77;;;19.80;82.00;;;;;;4978514;28;20451;-85
2021/06/14 06:54:12;;;;;;;3.80;3.30;;;19.80;81.20;;;;;;4981647;28;20479;-82
2021/06/14 06:57:03;;;;;;;4.30;3.87;;;19.90;81.20;;;;;;4984811;28;20537;-83
2021/06/14 06:59:36;;;;;;;5.13;4.20;;;19.60;81.30;;;;;;4984132;28;20475;-83
2021/06/14 07:02:07;;;;;;;5.10;3.70;;;19.80;81.70;;;;;;4997857;28;20453;-83
2021/06/14 07:04:40;;;;;;;9.93;4.00;;;20.30;80.00;;;;;;4979483;28;20485;-83
2021/06/14 07:07:20;;;;;;;5.40;4.07;;;20.10;79.80;;;;;;4976326;28;20470;-84
2021/06/14 07:09:59;;;;;;;4.10;3.30;;;20.30;79.50;;;;;;4968563;28;20537;-84
2021/06/14 07:27:11;;;;;;;6.80;3.60;;;20.60;76.50;;;;;;4961412;28;20554;-82
2021/06/14 07:29:43;;;;;;;3.60;3.03;;;20.80;76.50;;;;;;4961898;28;20900;-81
2021/06/14 07:32:50;;;;;;;6.90;4.07;;;21.10;75.30;;;;;;4962582;28;20500;-80
2021/06/14 07:35:17;;;;;;;3.57;3.17;;;21.20;75.10;;;;;;4932315;28;20520;-81
2021/06/14 07:37:58;;;;;;;7.30;3.97;;;21.10;75.40;;;;;;4964315;28;20488;-81
2021/06/14 07:41:00;;;;;;;4.60;3.63;;;20.80;75.60;;;;;;4947219;28;20451;-82
2021/06/14 07:46:58;;;;;;;5.97;3.50;;;21.70;73.20;;;;;;4947202;28;20511;-82
2021/06/14 07:50:22;;;;;;;6.33;4.23;;;21.60;73.00;;;;;;4939825;28;20444;-83
2021/06/14 07:53:38;;;;;;;4.90;3.43;;;21.50;73.00;;;;;;4896981;29;20529;-80
2021/06/14 07:56:53;;;;;;;4.40;3.80;;;21.60;73.20;;;;;;4880207;29;20614;-81
2021/06/14 08:00:48;;;;;;;;;;;;;;;;;;;;;
2021/06/14 08:03:38;;;;;;;3.90;3.50;;;21.60;72.90;;;;;;4744074;30;22342;-83
2021/06/14 08:06:19;;;;;;;5.33;3.97;;;21.70;73.20;;;;;;4740457;30;20486;-82
2021/06/14 08:16:19;;;;;;;4.70;3.73;;;22.40;71.30;;;;;;5077551;23;10002136;-80
2021/06/14 08:18:50;;;;;;;6.07;3.53;;;22.40;70.90;;;;;;4977247;28;20312;-80
2021/06/14 08:21:29;;;;;;;6.40;3.20;;;22.70;70.80;;;;;;4980315;28;20450;-81
2021/06/14 08:26:42;;;;;;;5.13;3.93;;;22.90;70.30;;;;;;4980968;28;20470;-84
2021/06/14 08:29:10;;;;;;;4.60;3.30;;;23.30;68.40;;;;;;4964066;28;20457;-82
2021/06/14 08:31:38;;;;;;;4.10;2.80;;;23.40;66.70;;;;;;4964388;28;20451;-82
2021/06/14 08:34:07;;;;;;;4.23;3.30;;;23.20;67.00;;;;;;4971019;28;20465;-82
2021/06/14 08:36:35;;;;;;;5.30;3.90;;;23.60;65.60;;;;;;4964342;28;20532;-82
2021/06/14 08:39:05;;;;;;;3.87;3.40;;;23.50;65.20;;;;;;4962667;28;20459;-81
2021/06/14 08:41:32;;;;;;;4.90;3.43;;;24.00;64.00;;;;;;4982154;28;20462;-81
2021/06/14 08:52:21;;;;;;;8.27;3.80;;;24.60;59.60;;;;;;4809260;29;20566;-81
2021/06/14 08:59:58;;;;;;;4.37;3.10;;;24.80;58.90;;;;;;4769941;29;20463;-81
2021/06/14 09:10:36;;;;;;;7.73;3.50;;;25.80;55.30;;;;;;4793049;29;20500;-81
2021/06/14 09:13:31;;;;;;;6.57;3.93;;;25.70;56.50;;;;;;4791195;29;20581;-84
2021/06/14 09:16:23;;;;;;;5.87;3.13;;;26.50;54.90;;;;;;4732687;29;20521;-82
2021/06/14 09:18:58;;;;;;;3.33;3.03;;;26.20;54.50;;;;;;4774356;29;20457;-82
2021/06/14 09:21:54;;;;;;;;;;;;;;;;;;;;;
2021/06/14 09:32:03;;;;;;;3.53;2.90;;;27.40;51.60;;;;;;4809162;29;21236;-81
2021/06/14 09:34:53;;;;;;;5.40;3.67;;;28.50;49.50;;;;;;4833080;29;20488;-82
2021/06/14 09:38:33;;;;;;;;;;;;;;;;;;;;;
2021/06/14 09:41:28;;;;;;;3.67;3.07;;;28.50;48.10;;;;;;4842750;29;20665;-84
2021/06/14 09:44:17;;;;;;;4.10;3.43;;;28.80;46.90;;;;;;4850045;29;21049;-82
2021/06/14 09:47:52;;;;;;;3.50;2.60;;;28.40;47.40;;;;;;4847625;29;21300;-83
2021/06/14 09:50:52;;;;;;;3.70;2.80;;;29.30;45.10;;;;;;4847549;29;20473;-83
2021/06/14 09:53:35;;;;;;;6.40;3.17;;;29.30;44.90;;;;;;4870229;29;20549;-81
2021/06/14 10:07:55;;;;;;;4.50;3.20;;;31.20;40.20;;;;;;5208115;23;21314;-82
2021/06/14 10:10:34;;;;;;;3.80;2.70;;;31.10;40.50;;;;;;4967356;28;20456;-82
2021/06/14 10:13:17;;;;;;;3.57;3.27;;;31.60;39.30;;;;;;4969223;28;20889;-83
2021/06/14 10:49:01;;;;;;;6.17;3.00;;;32.00;38.00;;;;;;4981756;28;20502;-81
2021/06/14 10:51:37;;;;;;;5.20;3.03;;;31.70;37.80;;;;;;4987441;28;20470;-84
2021/06/14 10:54:35;;;;;;;3.57;3.23;;;32.10;37.60;;;;;;4972294;28;20483;-84
2021/06/14 10:57:33;;;;;;;4.60;3.37;;;32.30;37.20;;;;;;4985289;28;20487;-82
2021/06/14 11:00:33;;;;;;;5.27;3.30;;;31.70;37.80;;;;;;5005437;28;20485;-83
2021/06/14 11:03:28;;;;;;;2.80;2.60;;;31.40;38.60;;;;;;4978611;28;20473;-81
2021/06/14 11:06:51;;;;;;;2.87;2.50;;;32.00;38.00;;;;;;4991185;28;20477;-82
2021/06/14 11:10:01;;;;;;;3.87;3.10;;;31.20;38.60;;;;;;4973930;28;20434;-81
2021/06/14 11:13:07;;;;;;;7.50;3.07;;;31.80;38.70;;;;;;4989577;28;20486;-82
2021/06/14 11:16:35;;;;;;;4.43;3.40;;;31.70;38.60;;;;;;4990695;28;20467;-81
2021/06/14 11:19:45;;;;;;;4.00;2.90;;;31.90;38.50;;;;;;4994078;28;20525;-81
2021/06/14 11:22:41;;;;;;;4.13;3.07;;;31.80;37.90;;;;;;4954347;28;20494;-82
2021/06/14 11:25:53;;;;;;;4.77;3.13;;;31.80;38.10;;;;;;4972047;28;20474;-84
2021/06/14 11:28:48;;;;;;;3.30;3.00;;;31.90;37.70;;;;;;4984357;28;20439;-81
2021/06/14 11:35:52;;;;;;;3.43;3.10;;;32.10;37.70;;;;;;5305048;23;21282;-79
2021/06/14 11:38:37;;;;;;;4.53;3.00;;;31.80;38.60;;;;;;4981623;28;20573;-80
2021/06/14 11:45:10;;;;;;;3.27;2.97;;;32.30;37.80;;;;;;5006691;28;20445;-83
2021/06/14 11:48:05;;;;;;;4.13;3.57;;;32.00;38.30;;;;;;5024486;28;20452;-83
2021/06/14 12:05:40;;;;;;;4.80;3.37;;;33.00;37.40;;;;;;5110486;23;21100;-83
2021/06/14 12:12:49;;;;;;;4.27;3.00;;;32.90;37.60;;;;;;4815413;29;20454;-82
2021/06/14 12:19:00;;;;;;;4.77;2.60;;;32.90;36.30;;;;;;4864971;29;20590;-83
2021/06/14 12:21:29;;;;;;;3.90;3.07;;;32.90;35.90;;;;;;4866399;29;21045;-82
2021/06/14 12:24:17;;;;;;;4.60;2.57;;;32.70;36.30;;;;;;4880750;29;20490;-81
2021/06/14 12:27:04;;;;;;;4.37;2.60;;;33.00;36.10;;;;;;4903453;29;20470;-82
2021/06/14 12:29:43;;;;;;;5.00;2.70;;;32.80;36.40;;;;;;4902891;29;20458;-82
2021/06/14 12:32:12;;;;;;;2.73;2.50;;;32.80;37.00;;;;;;4904884;29;20462;-79
2021/06/14 12:34:49;;;;;;;4.60;2.90;;;33.20;36.40;;;;;;4903004;29;20478;-82
2021/06/14 12:37:42;;;;;;;4.07;2.40;;;32.70;36.90;;;;;;4905996;29;20902;-83
2021/06/14 12:48:47;;;;;;;5.93;2.70;;;32.90;34.90;;;;;;4913846;29;20422;-83
2021/06/14 12:55:03;;;;;;;3.00;2.60;;;33.10;34.50;;;;;;4905137;29;20480;-83
2021/06/14 12:58:41;;;;;;;5.03;2.40;;;33.20;34.20;;;;;;4983506;28;20593;-82
2021/06/14 13:05:50;;;;;;;3.00;2.17;;;32.20;35.20;;;;;;4915404;29;21176;-82
2021/06/14 13:09:53;;;;;;;;;;;;;;;;;;;;;
2021/06/14 13:12:41;;;;;;;2.07;1.87;;;32.10;35.30;;;;;;4838390;29;20445;-82
2021/06/14 13:15:51;;;;;;;2.40;2.20;;;32.00;34.10;;;;;;4919663;28;20878;-79
2021/06/14 13:19:21;;;;;;;4.73;2.37;;;31.90;35.00;;;;;;4892023;29;20479;-82
2021/06/14 13:29:52;;;;;;;3.73;2.40;;;31.80;35.00;;;;;;4907254;29;21268;-82
2021/06/14 13:51:30;;;;;;;;;;;;;;;;;;;;;
2021/06/14 13:57:26;;;;;;;2.33;1.87;;;31.60;33.80;;;;;;5113556;23;20627;-83
2021/06/14 14:00:32;;;;;;;1.70;1.60;;;31.30;33.90;;;;;;4982546;28;20562;-82
2021/06/14 14:03:13;;;;;;;1.87;1.50;;;31.40;32.80;;;;;;4941111;29;20457;-82
2021/06/14 14:05:53;;;;;;;1.80;1.70;;;31.20;33.10;;;;;;4912375;29;20478;-83
2021/06/14 14:08:38;;;;;;;2.60;1.70;;;31.00;33.10;;;;;;4926854;29;20546;-81
2021/06/14 14:15:22;;;;;;;1.73;1.63;;;30.90;33.10;;;;;;5274653;23;20569;-84
2021/06/14 14:18:17;;;;;;;3.20;1.90;;;31.00;33.50;;;;;;4970775;28;20479;-87
2021/06/14 14:20:47;;;;;;;2.83;1.70;;;31.10;33.60;;;;;;4985769;28;20513;-84
2021/06/14 14:23:20;;;;;;;4.47;2.33;;;31.10;33.60;;;;;;4986304;28;20455;-84
2021/06/14 14:30:49;;;;;;;;;;;;;;;;;;;;;
2021/06/14 15:02:14;;;;;;;5.57;3.47;;;31.70;35.80;;;;;;4847051;29;20561;-85
2021/06/14 16:13:45;;;;;;;5.80;2.87;;;31.10;38.00;;;;;;3149693;26;20451;-88
2021/06/14 16:16:38;;;;;;;3.53;3.23;;;31.00;37.90;;;;;;4996358;28;20447;-85
2021/06/14 16:22:53;;;;;;;3.50;2.60;;;31.10;38.30;;;;;;4925053;29;20573;-86
2021/06/14 16:25:27;;;;;;;5.50;3.20;;;31.40;37.20;;;;;;4922837;28;20502;-84
2021/06/14 16:28:04;;;;;;;6.70;3.07;;;31.20;37.40;;;;;;4965144;28;20550;-84
2021/06/14 16:30:46;;;;;;;5.03;3.40;;;31.00;38.00;;;;;;4965512;28;20458;-86
2021/06/14 16:33:19;;;;;;;4.70;3.40;;;31.00;38.30;;;;;;4958480;28;20468;-85
2021/06/14 16:36:16;;;;;;;6.73;3.80;;;31.10;38.10;;;;;;4962551;28;20566;-86
2021/06/14 16:39:08;;;;;;;;;;;;;;;;;;;;;
2021/06/14 16:41:42;;;;;;;5.70;3.60;;;31.00;38.10;;;;;;4981675;28;20970;-86
2021/06/14 16:44:19;;;;;;;5.40;3.47;;;30.90;39.40;;;;;;4963849;28;20529;-84
2021/06/14 16:47:13;;;;;;;9.30;3.70;;;30.90;39.60;;;;;;4982804;28;20558;-87
2021/06/14 16:49:55;;;;;;;5.40;3.50;;;30.60;40.60;;;;;;4961183;28;20455;-84
2021/06/14 16:52:39;;;;;;;5.07;3.50;;;30.70;41.10;;;;;;4978097;28;20546;-83
2021/06/14 16:59:14;;;;;;;4.47;3.73;;;30.80;40.20;;;;;;4985765;28;21077;-83
2021/06/14 17:02:01;;;;;;;5.30;4.13;;;31.00;40.80;;;;;;4983478;28;20481;-84
2021/06/14 17:04:56;;;;;;;4.30;3.90;;;30.90;40.90;;;;;;4982489;28;20471;-88
2021/06/14 17:08:16;;;;;;;4.43;3.90;;;30.80;41.30;;;;;;4973849;28;20460;-84
2021/06/14 17:11:04;;;;;;;7.30;3.67;;;30.60;41.40;;;;;;4960441;28;20470;-85
2021/06/14 17:17:31;;;;;;;5.00;3.77;;;30.50;41.90;;;;;;4981390;28;20530;-87
2021/06/14 17:20:21;;;;;;;4.53;4.10;;;30.50;42.10;;;;;;4965226;28;20462;-86
2021/06/14 17:22:58;;;;;;;4.20;3.80;;;30.60;41.90;;;;;;4964310;28;20632;-87
2021/06/14 17:25:35;;;;;;;10.80;4.20;;;30.90;41.70;;;;;;4983213;28;21806;-84
2021/06/14 17:35:56;;;;;;;5.37;4.43;;;30.50;42.00;;;;;;4927807;29;20488;-87
2021/06/14 17:38:33;;;;;;;4.30;3.27;;;31.00;41.70;;;;;;4928802;29;20482;-86
2021/06/14 17:41:20;;;;;;;5.97;3.40;;;30.90;41.60;;;;;;4909885;29;20453;-89
2021/06/14 17:47:56;;;;;;;6.03;4.03;;;30.90;41.70;;;;;;4910822;28;20506;-88
2021/06/14 17:50:40;;;;;;;4.97;4.00;;;31.00;41.40;;;;;;4973922;28;20459;-83
2021/06/14 17:53:12;;;;;;;3.77;3.40;;;30.90;41.50;;;;;;4972327;28;20494;-85
2021/06/14 17:56:15;;;;;;;8.37;4.07;;;30.90;41.30;;;;;;4985936;28;20481;-85
2021/06/14 18:02:46;;;;;;;5.67;3.67;;;30.40;42.00;;;;;;4994966;28;20457;-90
2021/06/14 18:08:58;;;;;;;4.63;3.27;;;30.40;41.90;;;;;;4960835;28;20445;-87
2021/06/14 18:12:36;;;;;;;3.80;3.50;;;30.60;41.60;;;;;;4957386;29;20480;-85
2021/06/14 18:15:09;;;;;;;6.30;3.83;;;30.40;41.70;;;;;;4932739;28;20516;-88
2021/06/14 18:25:47;;;;;;;6.73;3.77;;;30.00;41.80;;;;;;4873087;29;20445;-88
2021/06/14 18:32:30;;;;;;;3.53;3.07;;;29.70;41.90;;;;;;4877820;29;20453;-88
2021/06/14 18:35:19;;;;;;;4.53;3.20;;;29.60;42.20;;;;;;4914538;28;20534;-88
2021/06/14 18:45:28;;;;;;;5.30;3.27;;;29.70;42.50;;;;;;5000521;28;20482;-85
2021/06/14 18:48:14;;;;;;;6.00;4.57;;;29.70;42.90;;;;;;4978589;28;20447;-85
2021/06/14 18:50:52;;;;;;;6.60;4.33;;;29.90;42.90;;;;;;4995271;28;20459;-83
2021/06/14 18:56:37;;;;;;;5.00;3.87;;;29.50;43.40;;;;;;3980974;26;10001747;-86
2021/06/14 18:59:20;;;;;;;5.27;3.90;;;29.40;43.50;;;;;;4982405;28;20225;-84
2021/06/14 19:01:54;;;;;;;6.13;3.73;;;29.30;43.60;;;;;;4981403;28;20459;-85
2021/06/14 19:04:44;;;;;;;7.03;4.17;;;29.20;43.80;;;;;;4984442;28;21031;-82
2021/06/14 19:11:24;;;;;;;5.90;3.90;;;29.30;44.30;;;;;;4999618;28;20503;-86
2021/06/14 19:15:21;;;;;;;4.10;3.80;;;29.20;44.50;;;;;;4980457;28;20960;-85
2021/06/14 19:17:58;;;;;;;6.83;4.77;;;29.20;44.40;;;;;;5001485;28;20453;-85
2021/06/14 19:20:39;;;;;;;6.10;4.17;;;29.10;44.50;;;;;;4984153;28;20520;-85
2021/06/14 19:23:07;;;;;;;7.43;4.47;;;29.10;44.90;;;;;;4990747;28;20453;-84
2021/06/14 19:25:37;;;;;;;8.90;6.93;;;29.00;45.00;;;;;;5013833;28;20495;-86
2021/06/14 19:28:14;;;;;;;12.70;9.77;;;29.10;45.10;;;;;;4999304;28;20459;-88
2021/06/14 19:30:51;;;;;;;8.37;7.50;;;29.10;45.20;;;;;;4992078;28;20552;-84
2021/06/14 19:33:37;;;;;;;7.60;6.07;;;29.10;45.10;;;;;;4979788;28;20530;-85
2021/06/14 19:36:11;;;;;;;5.30;3.90;;;29.00;45.30;;;;;;4979006;28;20465;-85
2021/06/14 19:39:31;;;;;;;4.70;4.30;;;29.00;45.60;;;;;;4974851;28;20470;-86